Time;durP1;ratioP1;P1;durP2;ratioP2;P2;SDS_P1;SDS_P2;PMS_P1;PMS_P2;Temp;Humidity;BMP_temperature;BMP_pressure;BME280_temperature;BME280_humidity;BME280_pressure;Samples;Min_cycle;Max_cycle;Signal;HPM_P1;HPM_P2
2021/09/10 00:00:53;;;;;;;8.63;7.68;;;20.80;72.60;;;;;;6247096;28;20546;-76
2021/09/10 00:04:01;;;;;;;9.23;8.40;;;20.80;72.80;;;;;;6246996;28;20500;-76
2021/09/10 00:07:03;;;;;;;10.55;8.95;;;20.70;72.20;;;;;;6246004;28;20928;-76
2021/09/10 00:10:06;;;;;;;10.45;8.93;;;20.70;72.40;;;;;;6245243;28;20442;-76
2021/09/10 00:13:08;;;;;;;10.23;9.18;;;20.70;72.80;;;;;;6246343;28;20419;-76
2021/09/10 00:16:10;;;;;;;9.90;9.00;;;20.70;72.80;;;;;;6242884;28;20470;-76
2021/09/10 00:19:13;;;;;;;9.35;8.57;;;20.70;73.10;;;;;;6243211;28;20422;-76
2021/09/10 00:22:15;;;;;;;10.18;9.15;;;20.60;73.60;;;;;;6247329;28;20415;-76
2021/09/10 00:25:17;;;;;;;9.95;9.07;;;20.60;73.40;;;;;;6248217;28;20485;-76
2021/09/10 00:28:19;;;;;;;9.35;8.45;;;20.60;73.50;;;;;;6249690;28;20525;-76
2021/09/10 00:31:20;;;;;;;10.40;9.30;;;20.60;73.40;;;;;;6248859;28;20486;-76
2021/09/10 00:34:24;;;;;;;10.38;9.43;;;20.60;73.60;;;;;;6249194;28;20506;-77
2021/09/10 00:37:26;;;;;;;10.13;9.23;;;20.50;73.80;;;;;;6250012;28;21062;-76
2021/09/10 00:40:27;;;;;;;10.15;9.18;;;20.50;74.20;;;;;;6249013;28;20931;-76
2021/09/10 00:43:29;;;;;;;10.35;9.40;;;20.40;74.50;;;;;;6245576;28;20999;-76
2021/09/10 00:46:31;;;;;;;9.80;8.80;;;20.30;74.90;;;;;;6245586;28;20534;-76
2021/09/10 00:49:35;;;;;;;9.60;8.75;;;20.30;74.90;;;;;;6245035;28;20873;-76
2021/09/10 00:52:37;;;;;;;9.85;8.85;;;20.20;75.20;;;;;;6245288;28;20907;-76
2021/09/10 00:55:40;;;;;;;11.25;9.63;;;20.20;75.10;;;;;;6245322;28;20508;-76
2021/09/10 00:58:42;;;;;;;10.60;9.32;;;20.20;75.30;;;;;;6245435;28;20415;-75
2021/09/10 01:01:45;;;;;;;11.35;10.15;;;20.10;75.50;;;;;;6245193;28;20506;-76
2021/09/10 01:04:48;;;;;;;10.40;9.27;;;20.10;75.10;;;;;;6245278;28;20411;-75
2021/09/10 01:07:52;;;;;;;10.68;9.73;;;20.10;76.20;;;;;;6245728;28;20431;-76
2021/09/10 01:10:54;;;;;;;13.20;9.60;;;20.10;75.40;;;;;;6243526;28;20793;-75
2021/09/10 01:13:56;;;;;;;9.48;8.52;;;20.10;75.30;;;;;;6242212;28;20442;-76
2021/09/10 01:16:58;;;;;;;10.98;9.98;;;20.10;75.20;;;;;;6244490;28;20445;-75
2021/09/10 01:20:02;;;;;;;14.00;9.93;;;20.10;75.40;;;;;;6245517;28;20951;-75
2021/09/10 01:23:03;;;;;;;10.07;9.07;;;20.00;75.50;;;;;;6244640;28;20419;-76
2021/09/10 01:26:07;;;;;;;10.50;9.57;;;20.00;75.40;;;;;;6244565;28;21062;-75
2021/09/10 01:29:09;;;;;;;11.23;10.02;;;20.00;76.20;;;;;;6244589;28;20541;-76
2021/09/10 01:32:10;;;;;;;10.85;9.85;;;19.90;75.60;;;;;;6245351;28;20435;-76
2021/09/10 01:35:13;;;;;;;11.05;9.95;;;19.90;75.50;;;;;;6244333;28;20504;-76
2021/09/10 01:38:14;;;;;;;12.63;9.77;;;19.90;75.60;;;;;;6244649;28;20573;-75
2021/09/10 01:41:17;;;;;;;12.75;9.85;;;19.90;76.00;;;;;;6244792;28;20561;-76
2021/09/10 01:44:19;;;;;;;10.43;9.32;;;19.80;76.30;;;;;;6244960;28;20516;-76
2021/09/10 01:47:21;;;;;;;12.07;10.95;;;19.70;76.60;;;;;;6244464;28;20537;-75
2021/09/10 01:50:25;;;;;;;10.65;9.75;;;19.60;77.40;;;;;;6244436;28;20411;-75
2021/09/10 01:53:32;;;;;;;11.80;10.63;;;19.50;77.10;;;;;;6244408;28;20494;-75
2021/09/10 01:56:35;;;;;;;10.52;9.45;;;19.40;78.00;;;;;;6222556;28;20447;-76
2021/09/10 01:59:37;;;;;;;11.80;10.15;;;19.40;77.50;;;;;;6220367;28;20429;-76
2021/09/10 02:02:38;;;;;;;15.43;10.23;;;19.30;77.80;;;;;;6219661;28;20451;-75
2021/09/10 02:05:40;;;;;;;10.15;9.25;;;19.30;77.80;;;;;;6219941;28;20914;-75
2021/09/10 02:08:42;;;;;;;11.00;9.90;;;19.20;78.10;;;;;;6221303;28;20409;-76
2021/09/10 02:11:45;;;;;;;11.05;9.95;;;19.20;78.10;;;;;;6236264;28;20518;-76
2021/09/10 02:14:47;;;;;;;11.32;10.30;;;19.20;78.10;;;;;;6248293;28;20948;-76
2021/09/10 02:17:49;;;;;;;10.25;9.25;;;19.10;78.10;;;;;;6248856;28;20948;-76
2021/09/10 02:20:51;;;;;;;11.15;10.18;;;19.10;78.00;;;;;;6248956;28;20411;-76
2021/09/10 02:23:53;;;;;;;11.48;10.43;;;19.10;78.20;;;;;;6249081;28;20434;-76
2021/09/10 02:26:56;;;;;;;11.57;10.47;;;19.10;78.20;;;;;;6248337;28;20892;-75
2021/09/10 02:29:58;;;;;;;11.45;10.35;;;19.10;78.20;;;;;;6248659;28;20411;-76
2021/09/10 02:33:00;;;;;;;11.30;10.20;;;19.10;78.30;;;;;;6248595;28;20443;-75
2021/09/10 02:36:02;;;;;;;13.38;10.70;;;19.00;78.20;;;;;;6248453;28;20785;-75
2021/09/10 02:39:05;;;;;;;12.05;10.85;;;19.00;78.40;;;;;;6248632;28;20490;-76
2021/09/10 02:42:09;;;;;;;11.18;10.10;;;19.00;78.40;;;;;;6248150;28;20411;-76
2021/09/10 02:45:11;;;;;;;12.80;10.93;;;19.00;78.50;;;;;;6248654;28;20496;-75
2021/09/10 02:48:13;;;;;;;11.90;10.75;;;19.00;78.30;;;;;;6248408;28;21019;-75
2021/09/10 02:51:15;;;;;;;11.93;10.43;;;19.00;78.20;;;;;;6248390;28;20426;-75
2021/09/10 02:54:17;;;;;;;11.05;9.75;;;19.00;78.40;;;;;;6247760;28;20497;-76
2021/09/10 02:57:20;;;;;;;10.55;9.55;;;19.00;78.40;;;;;;6248035;28;20411;-76
2021/09/10 03:00:22;;;;;;;11.10;9.98;;;19.00;78.40;;;;;;6247946;28;20896;-76
2021/09/10 03:03:24;;;;;;;10.98;9.95;;;19.00;78.30;;;;;;6248118;28;20521;-75
2021/09/10 03:06:25;;;;;;;9.85;8.80;;;19.00;78.40;;;;;;6247450;28;20497;-75
2021/09/10 03:09:27;;;;;;;10.93;9.82;;;19.10;78.30;;;;;;6247569;28;20481;-75
2021/09/10 03:12:31;;;;;;;10.23;9.40;;;19.20;78.10;;;;;;6246548;28;21033;-75
2021/09/10 03:15:33;;;;;;;12.10;10.38;;;19.20;77.70;;;;;;6246953;28;20441;-75
2021/09/10 03:18:34;;;;;;;11.48;10.43;;;19.30;77.60;;;;;;6247789;28;20431;-76
2021/09/10 03:21:36;;;;;;;10.82;9.93;;;19.30;77.00;;;;;;6245932;28;20530;-75
2021/09/10 03:24:38;;;;;;;11.02;9.82;;;19.30;77.40;;;;;;6247373;28;20510;-75
2021/09/10 03:27:41;;;;;;;11.88;10.68;;;19.30;77.50;;;;;;6247641;28;20431;-76
2021/09/10 03:30:43;;;;;;;14.73;10.37;;;19.20;77.60;;;;;;6247218;28;20502;-75
2021/09/10 03:33:45;;;;;;;11.00;10.00;;;19.20;77.80;;;;;;6247330;28;20419;-76
2021/09/10 03:36:47;;;;;;;10.75;9.65;;;19.20;77.90;;;;;;6246566;28;20796;-77
2021/09/10 03:39:48;;;;;;;10.95;9.93;;;19.20;77.90;;;;;;6247584;28;20437;-76
2021/09/10 03:42:52;;;;;;;11.98;10.88;;;19.10;78.00;;;;;;6246971;28;20415;-76
2021/09/10 03:45:53;;;;;;;10.45;9.60;;;19.10;77.90;;;;;;6246700;28;20450;-76
2021/09/10 03:48:55;;;;;;;11.80;10.07;;;19.10;77.90;;;;;;6246570;28;20403;-76
2021/09/10 03:51:57;;;;;;;13.73;10.98;;;19.10;78.20;;;;;;6247150;28;20932;-76
2021/09/10 03:54:59;;;;;;;11.00;9.90;;;18.90;78.40;;;;;;6246292;28;20415;-76
2021/09/10 03:58:03;;;;;;;12.40;10.88;;;18.90;78.50;;;;;;6246841;28;20495;-76
2021/09/10 04:01:05;;;;;;;11.77;10.27;;;18.80;78.60;;;;;;6246436;28;20449;-76
2021/09/10 04:04:07;;;;;;;11.25;10.25;;;18.70;78.80;;;;;;6246991;28;20473;-76
2021/09/10 04:07:09;;;;;;;11.50;10.20;;;18.70;78.90;;;;;;6245757;28;20492;-75
2021/09/10 04:10:11;;;;;;;10.90;9.90;;;18.60;79.00;;;;;;6246229;28;20535;-76
2021/09/10 04:13:14;;;;;;;12.00;10.90;;;18.50;79.00;;;;;;6245559;28;20502;-76
2021/09/10 04:16:16;;;;;;;11.02;10.02;;;18.40;79.30;;;;;;6242938;28;20940;-76
2021/09/10 04:19:18;;;;;;;12.35;11.10;;;18.40;79.30;;;;;;6245902;28;20418;-76
2021/09/10 04:22:20;;;;;;;12.07;10.97;;;18.30;79.30;;;;;;6245948;28;20465;-76
2021/09/10 04:25:22;;;;;;;11.68;10.48;;;18.20;79.10;;;;;;6245920;28;20422;-75
2021/09/10 04:28:25;;;;;;;9.97;9.10;;;18.20;79.30;;;;;;6245666;28;20472;-76
2021/09/10 04:31:27;;;;;;;12.52;10.98;;;18.20;79.50;;;;;;6245853;28;20890;-76
2021/09/10 04:34:29;;;;;;;12.23;10.63;;;18.20;78.90;;;;;;6245306;28;20835;-76
2021/09/10 04:37:31;;;;;;;11.45;10.35;;;18.10;79.20;;;;;;6245855;28;20822;-76
2021/09/10 04:40:32;;;;;;;11.90;10.90;;;18.10;79.10;;;;;;6245816;28;20528;-76
2021/09/10 04:43:36;;;;;;;12.23;11.07;;;18.10;79.20;;;;;;6245887;28;20529;-75
2021/09/10 04:46:37;;;;;;;11.90;10.80;;;18.10;79.20;;;;;;6244998;28;20502;-76
2021/09/10 04:49:40;;;;;;;12.45;11.25;;;18.10;80.10;;;;;;6245211;28;21012;-76
2021/09/10 04:52:42;;;;;;;13.05;10.68;;;18.00;80.10;;;;;;6245395;28;20460;-76
2021/09/10 04:55:44;;;;;;;11.35;10.20;;;18.00;79.50;;;;;;6245256;28;20928;-75
2021/09/10 04:58:47;;;;;;;12.07;10.95;;;18.00;79.30;;;;;;6246941;28;20494;-75
2021/09/10 05:01:49;;;;;;;11.45;10.45;;;17.90;79.20;;;;;;6247360;28;20457;-76
2021/09/10 05:04:50;;;;;;;11.93;10.65;;;17.90;79.30;;;;;;6244839;28;20522;-75
2021/09/10 05:07:54;;;;;;;11.97;10.83;;;17.90;79.70;;;;;;6245306;28;20500;-75
2021/09/10 05:10:56;;;;;;;11.85;10.68;;;17.90;79.70;;;;;;6245229;28;20430;-75
2021/09/10 05:13:59;;;;;;;11.80;10.65;;;17.90;79.60;;;;;;6244144;28;20493;-74
2021/09/10 05:17:01;;;;;;;12.05;11.00;;;18.00;79.60;;;;;;6243913;28;20422;-75
2021/09/10 05:20:04;;;;;;;10.68;9.70;;;18.00;79.60;;;;;;6245186;28;20517;-75
2021/09/10 05:23:05;;;;;;;11.02;9.85;;;18.10;79.30;;;;;;6244729;28;20415;-75
2021/09/10 05:26:07;;;;;;;10.18;9.20;;;18.20;79.50;;;;;;6244620;28;20998;-75
2021/09/10 05:29:10;;;;;;;9.93;8.93;;;18.30;79.20;;;;;;6244559;28;20514;-75
2021/09/10 05:32:12;;;;;;;11.20;10.10;;;18.40;79.10;;;;;;6244998;28;20610;-74
2021/09/10 05:35:15;;;;;;;10.70;9.73;;;18.50;78.40;;;;;;6243969;28;20427;-75
2021/09/10 05:38:17;;;;;;;10.95;9.60;;;18.60;78.20;;;;;;6244441;28;20461;-75
2021/09/10 05:41:21;;;;;;;9.75;8.85;;;18.80;77.90;;;;;;6244460;28;20612;-75
2021/09/10 05:44:25;;;;;;;10.60;9.03;;;18.80;77.40;;;;;;6247299;28;20471;-75
2021/09/10 05:47:27;;;;;;;10.95;9.88;;;18.90;77.40;;;;;;6249903;28;20530;-75
2021/09/10 05:50:28;;;;;;;12.95;9.68;;;19.00;77.20;;;;;;6249714;28;20407;-75
2021/09/10 05:53:31;;;;;;;10.68;9.68;;;19.00;76.80;;;;;;6249594;28;20502;-75
2021/09/10 05:56:33;;;;;;;10.88;9.57;;;19.20;76.60;;;;;;6249079;28;20513;-75
2021/09/10 05:59:36;;;;;;;14.83;10.43;;;19.30;76.50;;;;;;6249773;28;20458;-75
2021/09/10 06:02:38;;;;;;;11.82;8.18;;;19.50;75.80;;;;;;6248955;28;21054;-75
2021/09/10 06:05:40;;;;;;;12.93;8.93;;;19.70;75.30;;;;;;6248255;28;20924;-75
2021/09/10 06:08:42;;;;;;;13.95;9.13;;;19.80;74.70;;;;;;6249188;28;20776;-75
2021/09/10 06:11:44;;;;;;;10.80;8.95;;;20.00;73.90;;;;;;6249363;28;20437;-76
2021/09/10 06:14:47;;;;;;;9.38;8.00;;;20.20;73.80;;;;;;6247979;28;21075;-75
2021/09/10 06:17:49;;;;;;;9.93;7.57;;;20.30;74.20;;;;;;6247909;28;20426;-75
2021/09/10 06:20:51;;;;;;;9.87;8.87;;;20.40;72.50;;;;;;6248787;28;20571;-75
2021/09/10 06:23:54;;;;;;;8.77;7.90;;;20.50;72.00;;;;;;6249233;28;20435;-75
2021/09/10 06:26:56;;;;;;;9.15;8.25;;;20.60;72.30;;;;;;6247931;28;20419;-75
2021/09/10 06:29:59;;;;;;;10.23;8.07;;;20.70;71.60;;;;;;6248321;28;20438;-75
2021/09/10 06:33:01;;;;;;;10.32;8.88;;;20.80;71.70;;;;;;6248375;28;20454;-75
2021/09/10 06:36:03;;;;;;;8.77;7.53;;;20.90;70.80;;;;;;6248390;28;20430;-76
2021/09/10 06:39:05;;;;;;;14.13;8.35;;;21.00;71.00;;;;;;6248350;28;20465;-76
2021/09/10 06:42:07;;;;;;;9.47;7.73;;;21.20;69.10;;;;;;6248273;28;20852;-75
2021/09/10 06:45:11;;;;;;;9.10;7.88;;;21.30;68.20;;;;;;6248223;28;20524;-76
2021/09/10 06:48:12;;;;;;;25.38;8.10;;;21.60;67.10;;;;;;6248459;28;20447;-76
2021/09/10 06:51:14;;;;;;;9.60;8.70;;;22.00;66.30;;;;;;6248123;28;20811;-76
2021/09/10 06:54:16;;;;;;;9.25;8.27;;;22.30;64.40;;;;;;6247119;28;20550;-76
2021/09/10 06:57:18;;;;;;;7.78;6.93;;;22.70;63.50;;;;;;6248207;28;20498;-75
2021/09/10 07:00:21;;;;;;;8.23;7.53;;;22.80;63.00;;;;;;6248028;28;21039;-76
2021/09/10 07:03:23;;;;;;;8.35;7.55;;;22.90;62.90;;;;;;6247830;28;20902;-76
2021/09/10 07:06:25;;;;;;;9.27;7.40;;;22.90;62.70;;;;;;6283096;22;20405;-77
2021/09/10 07:09:26;;;;;;;9.80;7.45;;;22.80;62.40;;;;;;6272665;28;20409;-76
2021/09/10 07:12:28;;;;;;;10.45;8.00;;;22.80;62.80;;;;;;6272462;28;20468;-77
2021/09/10 07:15:31;;;;;;;8.50;7.70;;;22.80;62.50;;;;;;6272228;28;20516;-77
2021/09/10 07:18:33;;;;;;;9.57;7.32;;;22.70;63.20;;;;;;6262973;28;20979;-77
2021/09/10 07:21:35;;;;;;;8.25;7.53;;;22.70;63.30;;;;;;6272107;28;20883;-76
2021/09/10 07:24:37;;;;;;;7.88;7.18;;;22.80;63.30;;;;;;6266756;28;20516;-76
2021/09/10 07:27:39;;;;;;;9.50;8.30;;;22.80;63.50;;;;;;6273081;28;20443;-77
2021/09/10 07:30:42;;;;;;;8.05;7.25;;;22.90;62.20;;;;;;6273643;28;20471;-76
2021/09/10 07:33:44;;;;;;;10.53;8.43;;;23.10;62.60;;;;;;6273188;28;20409;-77
2021/09/10 07:36:48;;;;;;;9.35;7.07;;;23.30;62.00;;;;;;6272362;28;20473;-77
2021/09/10 07:39:50;;;;;;;9.32;8.00;;;23.50;61.20;;;;;;6272800;28;20429;-77
2021/09/10 07:42:52;;;;;;;9.25;7.82;;;23.60;60.40;;;;;;6271816;28;20485;-77
2021/09/10 07:45:55;;;;;;;8.52;7.28;;;23.70;59.90;;;;;;6272426;28;20906;-78
2021/09/10 07:48:57;;;;;;;8.20;7.38;;;23.70;60.30;;;;;;6271980;28;20409;-77
2021/09/10 07:51:59;;;;;;;7.65;6.82;;;23.70;60.10;;;;;;6273642;28;20524;-76
2021/09/10 07:55:00;;;;;;;10.52;7.50;;;23.70;60.40;;;;;;6262855;28;20411;-77
2021/09/10 07:58:02;;;;;;;8.07;7.28;;;23.60;60.80;;;;;;6271953;28;20464;-76
2021/09/10 08:01:05;;;;;;;9.27;7.40;;;23.50;61.10;;;;;;6271796;28;20486;-77
2021/09/10 08:04:07;;;;;;;9.05;7.28;;;23.40;61.50;;;;;;6271936;28;20522;-77
2021/09/10 08:07:09;;;;;;;7.65;6.95;;;23.30;62.00;;;;;;6270882;28;20496;-77
2021/09/10 08:10:13;;;;;;;8.45;6.95;;;23.30;62.70;;;;;;6271903;28;20505;-76
2021/09/10 08:13:15;;;;;;;10.30;7.53;;;23.50;62.30;;;;;;6272503;28;20806;-77
2021/09/10 08:16:19;;;;;;;8.80;7.27;;;23.70;61.80;;;;;;6271472;28;20933;-76
2021/09/10 08:19:20;;;;;;;8.45;7.47;;;23.90;61.30;;;;;;6262777;28;20448;-76
2021/09/10 08:22:22;;;;;;;8.20;6.80;;;24.20;60.30;;;;;;6273912;28;20981;-77
2021/09/10 08:25:24;;;;;;;7.93;6.85;;;24.50;59.60;;;;;;6267694;28;20431;-76
2021/09/10 08:28:26;;;;;;;11.32;6.78;;;24.60;59.10;;;;;;6278329;28;20452;-77
2021/09/10 08:31:29;;;;;;;7.60;6.88;;;24.80;58.70;;;;;;6278802;28;20506;-78
2021/09/10 08:34:31;;;;;;;7.47;6.32;;;24.90;58.60;;;;;;6277785;28;20490;-78
2021/09/10 08:37:33;;;;;;;7.30;6.60;;;25.00;59.20;;;;;;6277257;28;20473;-78
2021/09/10 08:40:35;;;;;;;7.70;7.00;;;25.20;60.30;;;;;;6277057;28;20528;-77
2021/09/10 08:43:45;;;;;;;9.10;6.53;;;25.30;59.20;;;;;;6277859;28;20943;-77
2021/09/10 08:46:48;;;;;;;8.68;6.68;;;25.40;57.60;;;;;;6276671;28;20447;-79
2021/09/10 08:49:50;;;;;;;8.40;7.57;;;25.30;57.50;;;;;;6276502;28;20945;-77
2021/09/10 08:52:52;;;;;;;7.80;7.13;;;25.20;57.40;;;;;;6275872;28;20415;-77
2021/09/10 08:55:53;;;;;;;8.80;7.38;;;25.20;57.90;;;;;;6268473;28;20444;-78
2021/09/10 08:59:07;;;;;;;8.68;7.28;;;25.30;57.90;;;;;;6276337;28;20432;-77
2021/09/10 09:02:10;;;;;;;7.93;7.23;;;25.40;57.70;;;;;;6277319;28;20413;-78
2021/09/10 09:05:14;;;;;;;7.10;6.47;;;25.70;57.00;;;;;;6275789;28;20539;-77
2021/09/10 09:08:18;;;;;;;7.63;6.90;;;25.80;57.00;;;;;;6279209;28;20492;-78
2021/09/10 09:11:19;;;;;;;7.15;6.45;;;25.80;56.40;;;;;;6277930;28;20417;-78
2021/09/10 09:14:45;;;;;;;9.48;6.85;;;25.90;56.30;;;;;;6274756;28;20530;-77
2021/09/10 09:17:49;;;;;;;9.00;6.57;;;25.90;56.20;;;;;;6273083;28;20879;-77
2021/09/10 09:20:50;;;;;;;7.50;6.70;;;26.00;55.50;;;;;;6268354;28;20937;-77
2021/09/10 09:23:53;;;;;;;8.10;7.40;;;26.20;55.70;;;;;;6276422;28;20638;-77
2021/09/10 09:26:55;;;;;;;6.88;6.28;;;26.40;55.30;;;;;;6268311;28;20414;-78
2021/09/10 09:29:57;;;;;;;7.15;6.55;;;26.40;54.90;;;;;;6276760;28;20477;-78
2021/09/10 09:33:00;;;;;;;10.18;7.20;;;26.40;54.90;;;;;;6276968;28;20543;-77
2021/09/10 09:36:03;;;;;;;6.60;6.00;;;26.50;55.70;;;;;;6276523;28;20547;-77
2021/09/10 09:39:11;;;;;;;7.05;5.85;;;26.50;56.30;;;;;;6275812;28;20447;-78
2021/09/10 09:42:13;;;;;;;8.73;6.40;;;26.60;56.30;;;;;;6275491;28;20816;-76
2021/09/10 09:45:16;;;;;;;6.43;5.93;;;26.60;54.90;;;;;;6276048;28;20583;-79
2021/09/10 09:48:21;;;;;;;6.75;6.05;;;26.70;54.00;;;;;;6277023;28;20803;-77
2021/09/10 09:51:23;;;;;;;8.00;7.00;;;26.60;52.90;;;;;;6276768;28;20460;-78
2021/09/10 09:54:25;;;;;;;7.75;7.03;;;26.40;53.60;;;;;;6271492;28;20482;-77
2021/09/10 09:57:29;;;;;;;8.43;7.32;;;26.30;53.60;;;;;;6269988;28;20452;-77
2021/09/10 10:00:31;;;;;;;7.75;6.47;;;26.10;54.90;;;;;;6273094;28;20902;-77
2021/09/10 10:03:35;;;;;;;7.60;6.93;;;26.20;56.40;;;;;;6272118;28;20572;-77
2021/09/10 10:06:37;;;;;;;10.63;6.60;;;26.30;55.00;;;;;;6269839;28;20436;-77
2021/09/10 10:09:41;;;;;;;7.78;7.00;;;26.30;55.60;;;;;;6274601;28;20486;-78
2021/09/10 10:12:47;;;;;;;7.67;6.97;;;26.30;55.70;;;;;;6272797;28;20519;-77
2021/09/10 10:15:49;;;;;;;7.50;6.78;;;26.30;55.40;;;;;;6273677;28;20936;-77
2021/09/10 10:18:53;;;;;;;8.52;7.15;;;26.30;56.80;;;;;;6266839;28;20796;-77
2021/09/10 10:21:56;;;;;;;7.43;6.17;;;26.30;56.90;;;;;;6263706;28;20503;-77
2021/09/10 10:25:00;;;;;;;6.73;5.93;;;26.40;55.40;;;;;;6261845;28;20948;-77
2021/09/10 10:28:01;;;;;;;7.03;6.32;;;26.50;55.20;;;;;;6276147;28;20517;-78
2021/09/10 10:31:03;;;;;;;8.20;6.57;;;26.50;56.40;;;;;;6276440;28;20527;-78
2021/09/10 10:34:07;;;;;;;8.43;6.82;;;26.50;57.70;;;;;;6279031;28;20420;-80
2021/09/10 10:37:40;;;;;;;6.83;6.23;;;26.60;58.70;;;;;;6280381;28;20894;-78
2021/09/10 10:40:43;;;;;;;8.43;7.55;;;26.70;58.00;;;;;;6280668;28;20813;-79
2021/09/10 10:43:45;;;;;;;9.57;6.72;;;26.60;58.80;;;;;;6278150;28;20925;-78
2021/09/10 10:46:47;;;;;;;42.17;38.40;;;26.50;58.60;;;;;;6279718;28;20476;-78
2021/09/10 10:49:51;;;;;;;10.40;8.83;;;26.50;57.70;;;;;;6279836;28;20416;-79
2021/09/10 10:52:56;;;;;;;7.70;7.00;;;26.50;57.70;;;;;;6277688;28;20408;-77
2021/09/10 10:55:58;;;;;;;8.38;7.07;;;26.50;58.00;;;;;;6256828;28;20511;-77
2021/09/10 10:59:30;;;;;;;8.88;7.55;;;26.50;58.10;;;;;;6276192;28;20513;-78
2021/09/10 11:02:32;;;;;;;7.70;7.00;;;26.50;57.70;;;;;;6290930;28;20413;-77
2021/09/10 11:05:35;;;;;;;7.70;7.00;;;26.50;57.40;;;;;;6279676;28;20484;-77
2021/09/10 11:08:41;;;;;;;10.13;7.22;;;26.60;57.80;;;;;;6277333;28;20575;-76
2021/09/10 11:11:43;;;;;;;8.50;7.68;;;26.80;56.70;;;;;;6272883;28;20465;-76
2021/09/10 11:14:44;;;;;;;14.15;12.77;;;27.10;56.00;;;;;;6271977;28;20470;-76
2021/09/10 11:17:54;;;;;;;18.45;16.75;;;27.40;55.50;;;;;;6272309;28;20496;-76
2021/09/10 11:21:05;;;;;;;8.40;7.15;;;27.70;54.80;;;;;;6265347;28;20501;-75
2021/09/10 11:24:08;;;;;;;10.48;7.35;;;28.10;53.50;;;;;;6269355;28;20575;-75
2021/09/10 11:27:23;;;;;;;7.43;6.72;;;28.60;52.70;;;;;;6264884;28;20790;-76
2021/09/10 11:30:29;;;;;;;10.10;5.57;;;29.20;52.50;;;;;;6271718;28;20409;-76
2021/09/10 11:33:41;;;;;;;6.63;5.23;;;29.60;50.00;;;;;;6271696;28;20470;-75
2021/09/10 11:36:44;;;;;;;6.95;5.55;;;29.80;49.50;;;;;;6271394;28;20982;-77
2021/09/10 11:39:46;;;;;;;5.97;5.47;;;29.70;48.70;;;;;;6271966;28;20433;-76
2021/09/10 11:42:48;;;;;;;6.87;5.77;;;29.70;47.80;;;;;;6270685;28;20491;-77
2021/09/10 11:45:52;;;;;;;5.90;5.40;;;29.40;48.50;;;;;;6271403;28;20417;-77
2021/09/10 11:48:54;;;;;;;6.10;5.30;;;29.40;48.30;;;;;;6271614;28;20409;-77
2021/09/10 11:51:57;;;;;;;6.40;5.80;;;29.40;49.10;;;;;;6271984;28;20429;-76
2021/09/10 11:55:11;;;;;;;6.30;5.65;;;29.40;48.60;;;;;;6264221;28;20501;-76
2021/09/10 11:58:13;;;;;;;5.63;5.13;;;29.10;48.80;;;;;;6275378;28;20491;-77
2021/09/10 12:01:21;;;;;;;6.60;5.95;;;29.00;49.00;;;;;;6274766;28;20418;-77
2021/09/10 12:04:28;;;;;;;9.55;8.65;;;28.90;49.50;;;;;;6270803;28;20433;-76
2021/09/10 12:07:35;;;;;;;7.28;6.57;;;28.80;50.70;;;;;;6271116;28;21450;-75
2021/09/10 12:10:37;;;;;;;6.45;5.85;;;28.70;50.60;;;;;;6271184;28;20425;-77
2021/09/10 12:13:39;;;;;;;7.05;6.15;;;28.70;50.90;;;;;;6271147;28;20460;-76
2021/09/10 12:16:40;;;;;;;10.35;7.35;;;28.50;52.00;;;;;;6271300;28;20461;-76
2021/09/10 12:20:03;;;;;;;10.15;6.28;;;28.50;51.90;;;;;;6271249;28;20516;-76
2021/09/10 12:23:07;;;;;;;9.85;6.57;;;28.30;52.00;;;;;;6263968;28;21028;-78
2021/09/10 12:26:10;;;;;;;7.90;7.15;;;28.20;52.80;;;;;;6263245;28;20417;-76
2021/09/10 12:29:18;;;;;;;7.28;6.28;;;28.00;53.00;;;;;;6271259;28;20421;-77
2021/09/10 12:32:20;;;;;;;8.30;7.50;;;27.80;53.40;;;;;;6271366;28;20437;-77
2021/09/10 12:35:22;;;;;;;6.88;6.28;;;27.70;53.60;;;;;;6270437;28;20488;-76
2021/09/10 12:38:30;;;;;;;9.43;7.20;;;27.50;54.10;;;;;;6270724;28;20482;-77
2021/09/10 12:41:32;;;;;;;8.03;7.23;;;27.40;55.00;;;;;;6270678;28;20507;-77
2021/09/10 12:44:34;;;;;;;7.57;6.83;;;27.20;55.10;;;;;;6270123;28;20522;-77
2021/09/10 12:47:36;;;;;;;9.70;7.93;;;27.00;55.90;;;;;;6270871;28;20429;-76
2021/09/10 12:50:39;;;;;;;9.30;8.33;;;26.80;55.80;;;;;;6270292;28;20487;-77
2021/09/10 12:53:42;;;;;;;8.88;6.90;;;26.70;56.60;;;;;;6270687;28;20418;-77
2021/09/10 12:56:44;;;;;;;10.15;7.22;;;26.70;56.70;;;;;;6263202;28;20441;-77
2021/09/10 12:59:46;;;;;;;7.82;7.07;;;26.70;56.60;;;;;;6273062;28;20506;-76
2021/09/10 13:02:48;;;;;;;8.23;6.97;;;26.70;57.10;;;;;;6273140;28;21108;-77
2021/09/10 13:05:52;;;;;;;7.45;6.70;;;26.70;56.80;;;;;;6273961;28;20977;-77
2021/09/10 13:08:55;;;;;;;7.05;6.43;;;26.90;55.70;;;;;;6272101;28;20413;-77
2021/09/10 13:11:57;;;;;;;7.50;6.27;;;27.00;55.70;;;;;;6274849;28;20574;-77
2021/09/10 13:14:59;;;;;;;6.57;5.93;;;27.30;53.90;;;;;;6256572;28;20426;-77
2021/09/10 13:18:01;;;;;;;6.60;5.82;;;27.70;53.40;;;;;;6248707;28;20446;-77
2021/09/10 13:21:03;;;;;;;5.97;5.43;;;28.00;51.90;;;;;;6248805;28;20899;-76
2021/09/10 13:24:07;;;;;;;5.93;5.43;;;28.30;50.30;;;;;;6264269;28;20544;-77
2021/09/10 13:27:09;;;;;;;6.15;5.63;;;28.50;49.70;;;;;;6266922;28;20441;-77
2021/09/10 13:30:12;;;;;;;5.93;5.43;;;28.60;50.00;;;;;;6273023;28;20414;-76
2021/09/10 13:33:14;;;;;;;7.45;6.18;;;28.80;49.80;;;;;;6274041;28;20547;-77
2021/09/10 13:36:16;;;;;;;6.03;5.53;;;28.90;49.30;;;;;;6275035;28;20428;-77
2021/09/10 13:39:20;;;;;;;6.65;5.97;;;28.90;49.50;;;;;;6272062;28;20487;-77
2021/09/10 13:42:24;;;;;;;6.27;5.67;;;29.00;49.80;;;;;;6271861;28;20433;-77
2021/09/10 13:45:26;;;;;;;8.15;6.45;;;29.20;50.00;;;;;;6271603;28;20421;-77
2021/09/10 13:48:29;;;;;;;5.53;5.03;;;29.60;48.20;;;;;;6271770;28;20511;-78
2021/09/10 13:51:31;;;;;;;5.22;4.72;;;30.10;47.60;;;;;;6272063;28;20456;-78
2021/09/10 13:54:34;;;;;;;8.13;5.18;;;30.30;46.30;;;;;;6268082;28;20916;-77
2021/09/10 13:57:36;;;;;;;6.10;5.60;;;30.40;45.90;;;;;;6268825;28;20507;-77
2021/09/10 14:00:38;;;;;;;6.07;5.57;;;30.30;45.30;;;;;;6271996;28;20461;-77
2021/09/10 14:03:40;;;;;;;5.57;5.07;;;30.00;46.00;;;;;;6273703;28;20433;-78
2021/09/10 14:06:41;;;;;;;6.45;5.85;;;29.80;46.60;;;;;;6277002;28;20891;-77
2021/09/10 14:09:45;;;;;;;6.10;5.50;;;29.70;46.80;;;;;;6280549;28;20570;-78
2021/09/10 14:12:46;;;;;;;6.50;5.68;;;29.60;47.70;;;;;;6278980;28;20960;-77
2021/09/10 14:15:48;;;;;;;6.88;6.28;;;29.40;48.40;;;;;;6278636;28;20587;-77
2021/09/10 14:18:50;;;;;;;6.80;6.15;;;29.40;49.50;;;;;;6279385;28;20424;-77
2021/09/10 14:21:53;;;;;;;6.47;5.78;;;29.20;49.20;;;;;;6277450;28;20825;-79
2021/09/10 14:24:56;;;;;;;6.55;5.95;;;28.90;49.50;;;;;;6261270;28;20937;-77
2021/09/10 14:27:59;;;;;;;7.03;6.43;;;28.70;50.30;;;;;;6261377;28;20492;-77
2021/09/10 14:31:01;;;;;;;7.65;6.95;;;28.50;50.80;;;;;;6262970;28;21034;-77
2021/09/10 14:34:03;;;;;;;6.90;6.30;;;28.30;51.60;;;;;;6252948;28;20431;-77
2021/09/10 14:37:05;;;;;;;11.60;5.68;;;28.20;52.10;;;;;;6250080;28;20419;-77
2021/09/10 14:40:09;;;;;;;8.02;6.32;;;27.80;52.60;;;;;;6251871;28;20481;-78
2021/09/10 14:43:11;;;;;;;6.60;6.05;;;27.60;53.50;;;;;;6249314;28;20505;-77
2021/09/10 14:46:13;;;;;;;6.50;5.68;;;27.30;54.80;;;;;;6248340;28;20546;-77
2021/09/10 14:49:15;;;;;;;8.90;6.47;;;27.10;55.40;;;;;;6248209;28;20904;-77
2021/09/10 14:52:17;;;;;;;11.18;5.95;;;26.90;55.80;;;;;;6248752;28;20516;-77
2021/09/10 14:55:20;;;;;;;9.07;6.15;;;26.50;53.40;;;;;;6263780;28;20496;-77
2021/09/10 14:58:24;;;;;;;7.18;6.45;;;26.00;53.60;;;;;;6248472;28;20426;-77
2021/09/10 15:01:29;;;;;;;10.85;7.20;;;25.50;56.90;;;;;;6248013;28;20549;-77
2021/09/10 15:04:35;;;;;;;11.97;7.13;;;25.10;60.00;;;;;;6247423;28;20593;-76
2021/09/10 15:07:37;;;;;;;8.25;7.35;;;24.80;62.00;;;;;;6248642;28;20431;-76
2021/09/10 15:10:40;;;;;;;7.85;6.85;;;24.80;62.10;;;;;;6247767;28;20423;-76
2021/09/10 15:13:42;;;;;;;8.30;7.15;;;24.90;61.80;;;;;;6247983;28;20780;-76
2021/09/10 15:16:44;;;;;;;10.00;6.78;;;25.00;61.60;;;;;;6246928;28;20411;-77
2021/09/10 15:19:46;;;;;;;8.60;6.78;;;25.20;61.00;;;;;;6248227;28;20520;-76
2021/09/10 15:22:48;;;;;;;7.10;6.33;;;25.40;60.40;;;;;;6248804;28;20407;-77
2021/09/10 15:25:51;;;;;;;9.18;7.20;;;25.60;59.70;;;;;;6259262;28;20945;-77
2021/09/10 15:28:53;;;;;;;35.88;32.53;;;25.80;59.30;;;;;;6272054;28;20544;-77
2021/09/10 15:31:54;;;;;;;14.95;8.75;;;25.90;58.50;;;;;;6272404;28;20988;-78
2021/09/10 15:34:56;;;;;;;9.05;7.75;;;26.00;58.30;;;;;;6271638;28;20419;-77
2021/09/10 15:37:59;;;;;;;7.30;6.60;;;26.10;58.20;;;;;;6272621;28;20418;-78
2021/09/10 15:41:03;;;;;;;7.88;6.82;;;26.20;57.90;;;;;;6273055;28;20919;-77
2021/09/10 15:44:05;;;;;;;9.05;8.30;;;26.20;58.20;;;;;;6273276;28;20437;-77